createdAt,value
2023-04-27T07:00:41.624Z,36.02
2023-04-27T07:01:41.507Z,34.05
2023-04-27T07:02:41.510Z,33.56
2023-04-27T07:03:41.666Z,32.94
2023-04-27T07:04:41.407Z,32.63
2023-04-27T07:05:41.445Z,32.45
2023-04-27T07:06:42.169Z,32.18
2023-04-27T07:07:41.374Z,32.03
2023-04-27T07:08:41.350Z,31.88
2023-04-27T07:09:41.359Z,31.72
2023-04-27T07:10:41.408Z,31.64
2023-04-27T07:11:41.441Z,31.55
2023-04-27T07:12:41.490Z,31.53
2023-04-27T07:13:41.498Z,31.41
2023-04-27T07:14:41.554Z,31.32
2023-04-27T07:15:41.595Z,31.32
2023-04-27T07:16:41.577Z,31.22
2023-04-27T07:17:41.649Z,31.19
2023-04-27T07:18:43.409Z,31.20
2023-04-27T07:19:41.633Z,31.04
2023-04-27T07:20:41.674Z,31.27
2023-04-27T07:21:41.704Z,31.07
2023-04-27T07:22:41.845Z,31.16
2023-04-27T07:23:41.722Z,31.07
2023-04-27T07:24:41.744Z,31.11
2023-04-27T07:25:41.750Z,31.06
2023-04-27T07:26:41.779Z,31.06
2023-04-27T07:27:41.784Z,30.99
2023-04-27T07:28:41.750Z,31.01
2023-04-27T07:29:41.742Z,30.91
2023-04-27T07:30:41.773Z,31.04
2023-04-27T07:31:41.850Z,30.85
2023-04-27T07:32:41.942Z,30.90
2023-04-27T07:33:41.826Z,30.94
2023-04-27T07:34:52.888Z,30.98
2023-04-27T07:35:42.861Z,31.00
2023-04-27T07:36:41.798Z,30.91
2023-04-27T07:37:41.803Z,30.90
2023-04-27T07:38:41.798Z,30.93
2023-04-27T07:39:41.798Z,31.01
2023-04-27T07:40:44.315Z,31.01
2023-04-27T07:41:41.775Z,31.12
2023-04-27T07:42:41.786Z,31.24
2023-04-27T07:43:41.787Z,31.14
2023-04-27T07:44:41.794Z,31.13
2023-04-27T07:45:41.766Z,31.26
2023-04-27T07:46:42.151Z,31.24
2023-04-27T07:47:41.722Z,31.27
2023-04-27T07:48:41.696Z,31.38
2023-04-27T07:49:41.729Z,31.40
2023-04-27T07:50:41.732Z,31.49
2023-04-27T07:51:42.149Z,31.61
2023-04-27T07:52:41.681Z,31.32
2023-04-27T07:53:41.696Z,31.80
2023-04-27T07:54:41.649Z,32.36
2023-04-27T07:55:41.661Z,31.33
2023-04-27T07:56:41.683Z,31.23
2023-04-27T07:57:41.647Z,31.42
2023-04-27T07:58:41.621Z,31.56
2023-04-27T07:59:41.622Z,31.76
2023-04-27T08:00:41.606Z,32.38
2023-04-27T08:01:41.655Z,31.98
2023-04-27T08:02:41.800Z,32.19
2023-04-27T08:03:41.861Z,32.05
2023-04-27T08:04:41.875Z,31.95
2023-04-27T08:05:41.874Z,31.99
2023-04-27T08:06:42.136Z,32.30
2023-04-27T08:07:44.944Z,32.23
2023-04-27T08:08:41.542Z,32.34
2023-04-27T08:09:41.546Z,32.55
2023-04-27T08:10:41.520Z,32.73
2023-04-27T08:11:41.523Z,32.77
2023-04-27T08:12:41.530Z,32.93
2023-04-27T08:13:41.517Z,32.97
2023-04-27T08:14:41.518Z,33.08
2023-04-27T08:15:41.540Z,33.18
2023-04-27T08:16:41.681Z,33.19
2023-04-27T08:17:41.515Z,33.28
2023-04-27T08:18:41.489Z,33.23
2023-04-27T08:19:41.505Z,33.27
2023-04-27T08:20:41.455Z,33.25
2023-04-27T08:21:41.638Z,33.52
2023-04-27T08:22:41.492Z,33.48
2023-04-27T08:23:41.452Z,33.58
2023-04-27T08:24:41.448Z,33.82
2023-04-27T08:25:41.460Z,34.08
2023-04-27T08:26:41.652Z,33.98
2023-04-27T08:27:41.392Z,34.18
2023-04-27T08:28:41.413Z,34.11
2023-04-27T08:29:41.414Z,34.12
2023-04-27T08:30:41.393Z,34.19
2023-04-27T08:31:41.451Z,34.15
2023-04-27T08:32:41.384Z,34.15
2023-04-27T08:33:41.388Z,34.07
2023-04-27T08:34:41.377Z,34.04
2023-04-27T08:35:41.356Z,34.08
2023-04-27T08:36:41.373Z,34.20
2023-04-27T08:37:41.325Z,34.29
2023-04-27T08:38:41.355Z,34.34
2023-04-27T08:39:41.353Z,34.38
2023-04-27T08:40:41.311Z,34.36
2023-04-27T08:41:41.330Z,34.18
2023-04-27T08:42:41.314Z,34.20
2023-04-27T08:43:41.307Z,34.29
2023-04-27T08:44:41.314Z,34.23
2023-04-27T08:45:41.288Z,34.22
2023-04-27T08:46:41.315Z,34.28
2023-04-27T08:47:43.827Z,34.10
2023-04-27T08:48:41.236Z,34.17
2023-04-27T08:49:41.259Z,34.10
2023-04-27T08:50:41.256Z,34.06
2023-04-27T08:51:41.641Z,34.06
2023-04-27T08:52:41.235Z,33.98
2023-04-27T08:53:41.227Z,34.00
2023-04-27T08:54:41.225Z,33.90
2023-04-27T08:55:41.182Z,33.92
2023-04-27T08:56:41.673Z,33.90
2023-04-27T08:57:41.227Z,33.96
2023-04-27T08:58:41.177Z,33.95
2023-04-27T08:59:41.185Z,33.80
2023-04-27T09:00:41.215Z,33.78
2023-04-27T09:01:41.178Z,33.77
2023-04-27T09:02:41.255Z,33.90
2023-04-27T09:03:41.228Z,33.82
2023-04-27T09:04:41.290Z,33.85
2023-04-27T09:05:49.416Z,33.76
2023-04-27T09:06:42.136Z,33.68
2023-04-27T09:07:41.092Z,33.62
2023-04-27T09:08:41.101Z,33.59
2023-04-27T09:09:41.178Z,33.56
2023-04-27T09:10:41.104Z,33.48
2023-04-27T09:11:41.093Z,33.59
2023-04-27T09:12:41.106Z,33.56
2023-04-27T09:13:41.098Z,33.63
2023-04-27T09:14:41.098Z,33.42
2023-04-27T09:15:41.077Z,33.39
2023-04-27T09:16:41.138Z,33.44
2023-04-27T09:17:41.046Z,33.43
2023-04-27T09:18:41.066Z,33.34
2023-04-27T09:19:41.038Z,33.41
2023-04-27T09:20:41.101Z,33.48
2023-04-27T09:21:41.151Z,33.41
2023-04-27T09:22:41.134Z,33.49
2023-04-27T09:23:41.167Z,33.31
2023-04-27T09:24:41.207Z,33.48
2023-04-27T09:25:41.250Z,33.38
2023-04-27T09:26:41.257Z,33.40
2023-04-27T09:27:41.305Z,33.44
2023-04-27T09:28:41.359Z,33.46
2023-04-27T09:29:41.337Z,33.28
2023-04-27T09:30:41.422Z,33.34
2023-04-27T09:31:41.457Z,33.36
2023-04-27T09:32:41.442Z,33.60
2023-04-27T09:33:41.580Z,33.95
2023-04-27T09:34:41.414Z,34.26
2023-04-27T09:35:41.451Z,34.61
2023-04-27T09:36:41.462Z,34.89
2023-04-27T09:37:41.536Z,35.06
2023-04-27T09:38:41.568Z,34.81
2023-04-27T09:39:41.663Z,34.73
2023-04-27T09:40:41.764Z,34.76
2023-04-27T09:41:42.209Z,34.61
2023-04-27T09:42:41.805Z,34.46
2023-04-27T09:43:41.849Z,34.40
2023-04-27T09:44:41.897Z,34.09
2023-04-27T09:45:41.988Z,34.26
2023-04-27T09:46:42.205Z,34.03
2023-04-27T09:47:42.097Z,34.02
2023-04-27T09:48:42.057Z,34.10
2023-04-27T09:49:42.061Z,34.18
2023-04-27T09:50:42.087Z,34.30
2023-04-27T09:51:42.121Z,35.02
2023-04-27T09:52:42.111Z,35.26
2023-04-27T09:53:42.112Z,36.56
2023-04-27T09:54:42.098Z,36.92
2023-04-27T09:55:42.128Z,37.01
2023-04-27T09:56:42.172Z,36.47
2023-04-27T09:57:42.211Z,36.83
2023-04-27T09:58:42.248Z,37.19
2023-04-27T09:59:42.331Z,37.42
2023-04-27T10:00:42.423Z,37.33
2023-04-27T10:01:42.567Z,37.19
2023-04-27T10:02:52.704Z,37.08
2023-04-27T10:03:43.881Z,36.90
2023-04-27T10:04:42.841Z,37.25
2023-04-27T10:05:42.750Z,37.53
2023-04-27T10:06:42.814Z,37.65
2023-04-27T10:07:42.863Z,37.45
2023-04-27T10:08:42.873Z,37.69
2023-04-27T10:09:42.926Z,37.64
2023-04-27T10:10:42.986Z,37.64
2023-04-27T10:11:43.034Z,37.41
2023-04-27T10:12:43.127Z,37.64
2023-04-27T10:13:43.105Z,37.52
2023-04-27T10:14:43.162Z,37.75
2023-04-27T10:15:43.211Z,37.50
2023-04-27T10:16:43.245Z,37.62
2023-04-27T10:17:43.280Z,37.92
2023-04-27T10:18:43.275Z,38.17
2023-04-27T10:19:43.320Z,38.06
2023-04-27T10:20:43.359Z,38.10
2023-04-27T10:21:43.362Z,38.13
2023-04-27T10:22:43.393Z,38.10
2023-04-27T10:23:43.410Z,38.34
2023-04-27T10:24:43.481Z,38.34
2023-04-27T10:25:43.473Z,38.38
2023-04-27T10:26:43.537Z,38.38
2023-04-27T10:27:43.501Z,38.42
2023-04-27T10:28:43.554Z,38.35
2023-04-27T10:29:43.683Z,38.39
2023-04-27T10:30:43.584Z,38.74
2023-04-27T10:31:43.566Z,38.65
2023-04-27T10:32:43.657Z,38.48
2023-04-27T10:33:43.609Z,38.48
2023-04-27T10:34:43.597Z,38.48
2023-04-27T10:35:44.253Z,38.76
2023-04-27T10:36:43.640Z,38.87
2023-04-27T10:37:43.617Z,38.84
2023-04-27T10:38:43.596Z,38.71
2023-04-27T10:39:47.830Z,38.66
2023-04-27T10:40:44.615Z,38.53
2023-04-27T10:41:43.573Z,38.65
2023-04-27T10:42:43.601Z,38.44
2023-04-27T10:43:43.559Z,38.59
2023-04-27T10:44:43.609Z,38.82
2023-04-27T10:45:43.610Z,39.17
2023-04-27T10:46:43.617Z,38.89
2023-04-27T10:47:43.564Z,38.70
2023-04-27T10:48:43.550Z,38.79
2023-04-27T10:49:43.539Z,38.90
2023-04-27T10:50:43.503Z,38.98
2023-04-27T10:51:43.730Z,39.05
2023-04-27T10:52:43.590Z,39.01
2023-04-27T10:53:43.625Z,39.58
2023-04-27T10:54:43.645Z,39.53
2023-04-27T10:55:43.678Z,39.82
2023-04-27T10:56:43.734Z,39.61
2023-04-27T10:57:43.785Z,39.19
2023-04-27T10:58:48.816Z,39.25
2023-04-27T10:59:44.836Z,39.25
2023-04-27T11:00:43.807Z,39.63
2023-04-27T11:01:43.866Z,39.57
2023-04-27T11:02:43.887Z,39.43
2023-04-27T11:03:43.959Z,39.64
2023-04-27T11:04:43.781Z,39.26
2023-04-27T11:05:43.801Z,39.40
2023-04-27T11:06:43.806Z,39.53
2023-04-27T11:07:43.763Z,39.50
2023-04-27T11:08:43.840Z,39.40
2023-04-27T11:09:43.867Z,39.78
2023-04-27T11:10:43.947Z,39.73
2023-04-27T11:11:44.015Z,39.53
2023-04-27T11:12:44.046Z,39.73
2023-04-27T11:13:44.106Z,39.74
2023-04-27T11:14:44.102Z,39.59
2023-04-27T11:15:44.226Z,39.65
2023-04-27T11:16:44.438Z,39.85
2023-04-27T11:17:44.322Z,40.07
2023-04-27T11:18:44.329Z,39.74
2023-04-27T11:19:44.420Z,40.03
2023-04-27T11:20:44.427Z,39.92
2023-04-27T11:21:44.528Z,39.86
2023-04-27T11:22:44.503Z,39.63
2023-04-27T11:23:44.535Z,39.60
2023-04-27T11:24:44.554Z,39.39
2023-04-27T11:25:44.592Z,39.50
2023-04-27T11:26:44.629Z,39.96
2023-04-27T11:27:44.671Z,39.56
2023-04-27T11:28:44.695Z,39.74
2023-04-27T11:29:45.764Z,39.88
2023-04-27T11:30:44.765Z,39.98
2023-04-27T11:31:44.839Z,39.92
2023-04-27T11:32:44.828Z,39.34
2023-04-27T11:33:44.847Z,39.39
2023-04-27T11:34:44.887Z,39.43
2023-04-27T11:35:44.947Z,39.83
2023-04-27T11:36:44.995Z,39.67
2023-04-27T11:37:45.050Z,39.38
2023-04-27T11:38:45.075Z,39.22
2023-04-27T11:39:45.079Z,39.27
2023-04-27T11:40:45.138Z,39.09
2023-04-27T11:41:45.246Z,38.98
2023-04-27T11:42:45.211Z,38.75
2023-04-27T11:43:45.257Z,38.66
2023-04-27T11:44:45.290Z,38.62
2023-04-27T11:45:45.336Z,38.48
2023-04-27T11:46:45.480Z,38.34
2023-04-27T11:47:45.506Z,38.24
2023-04-27T11:48:45.529Z,38.10
2023-04-27T11:49:45.627Z,38.02
2023-04-27T11:50:45.648Z,37.91
2023-04-27T11:51:45.699Z,37.87
2023-04-27T11:52:45.785Z,37.90
2023-04-27T11:53:45.855Z,37.76
2023-04-27T11:54:45.914Z,37.42
2023-04-27T11:55:45.933Z,37.49
2023-04-27T11:56:46.234Z,37.28
2023-04-27T11:57:46.100Z,37.38
2023-04-27T11:58:46.566Z,37.40
2023-04-27T11:59:46.199Z,37.42
2023-04-27T12:00:46.257Z,37.46
2023-04-27T12:01:46.357Z,37.31
2023-04-27T12:02:46.417Z,37.19
2023-04-27T12:03:46.480Z,36.98
2023-04-27T12:04:46.719Z,36.79
2023-04-27T12:05:46.597Z,36.44
2023-04-27T12:06:46.738Z,36.49
2023-04-27T12:07:46.611Z,36.22
2023-04-27T12:08:46.674Z,36.09
2023-04-27T12:09:46.728Z,36.16
2023-04-27T12:10:46.781Z,36.15
2023-04-27T12:11:47.251Z,35.93
2023-04-27T12:12:46.901Z,35.83
2023-04-27T12:13:46.955Z,35.85
2023-04-27T12:14:47.030Z,35.84
2023-04-27T12:15:47.069Z,35.75
2023-04-27T12:16:47.294Z,35.71
2023-04-27T12:17:47.205Z,35.83
2023-04-27T12:18:47.252Z,35.68
2023-04-27T12:19:47.296Z,35.78
2023-04-27T12:20:47.314Z,35.62
2023-04-27T12:21:47.763Z,35.67
2023-04-27T12:22:47.456Z,35.61
2023-04-27T12:23:47.491Z,35.40
2023-04-27T12:24:47.603Z,35.48
2023-04-27T12:25:47.629Z,35.55
2023-04-27T12:26:47.674Z,35.52
2023-04-27T12:27:47.747Z,35.41
2023-04-27T12:28:47.806Z,35.33
2023-04-27T12:29:47.902Z,35.33
2023-04-27T12:30:47.982Z,35.30
2023-04-27T12:31:48.263Z,35.32
2023-04-27T12:32:48.082Z,35.22
2023-04-27T12:33:48.181Z,35.28
2023-04-27T12:34:48.173Z,35.14
2023-04-27T12:35:48.290Z,35.18
2023-04-27T12:36:48.758Z,35.13
2023-04-27T12:37:48.353Z,35.07
2023-04-27T12:38:48.411Z,34.97
2023-04-27T12:39:48.439Z,35.04
2023-04-27T12:40:48.536Z,34.96
2023-04-27T12:41:48.748Z,34.97
2023-04-27T12:42:48.698Z,34.96
2023-04-27T12:43:48.756Z,34.85
2023-04-27T12:44:48.760Z,34.85
2023-04-27T12:45:48.868Z,34.80
2023-04-27T12:46:49.012Z,34.77
2023-04-27T12:48:00.862Z,34.72
2023-04-27T12:48:50.013Z,34.70
2023-04-27T12:49:48.997Z,34.71
2023-04-27T12:50:48.959Z,34.59
2023-04-27T12:51:48.942Z,34.62
2023-04-27T12:52:48.959Z,34.61
2023-04-27T12:53:48.920Z,34.66
2023-04-27T12:54:48.924Z,34.62
2023-04-27T12:55:48.882Z,34.57
2023-04-27T12:56:48.978Z,34.54
2023-04-27T12:57:49.054Z,34.52
2023-04-27T12:58:49.087Z,34.57
2023-04-27T12:59:49.173Z,34.59
2023-04-27T13:00:49.218Z,34.52
2023-04-27T13:01:56.854Z,34.52
2023-04-27T13:02:49.363Z,34.48
2023-04-27T13:03:49.388Z,34.50
2023-04-27T13:04:49.329Z,34.43
2023-04-27T13:05:49.220Z,34.41
2023-04-27T13:06:49.232Z,34.45
2023-04-27T13:07:49.271Z,34.49
2023-04-27T13:08:49.171Z,34.46
2023-04-27T13:09:49.195Z,34.44
2023-04-27T13:10:49.184Z,34.41
2023-04-27T13:11:49.159Z,34.41
2023-04-27T13:12:49.161Z,34.32
2023-04-27T13:13:49.127Z,34.50
2023-04-27T13:14:49.118Z,34.33
2023-04-27T13:15:49.214Z,34.33
2023-04-27T13:16:49.107Z,34.31
2023-04-27T13:17:49.197Z,34.32
2023-04-27T13:18:49.160Z,34.30
2023-04-27T13:19:49.108Z,34.25
2023-04-27T13:20:49.112Z,34.19
2023-04-27T13:21:49.122Z,34.17
2023-04-27T13:22:49.162Z,34.17
2023-04-27T13:23:49.205Z,34.15
2023-04-27T13:24:49.271Z,34.10
2023-04-27T13:25:49.317Z,34.10
2023-04-27T13:26:49.391Z,34.10
2023-04-27T13:27:49.777Z,34.15
2023-04-27T13:28:49.478Z,34.04
2023-04-27T13:29:49.582Z,34.01
2023-04-27T13:30:49.591Z,34.06
2023-04-27T13:31:49.730Z,34.01
2023-04-27T13:32:49.797Z,34.21
2023-04-27T13:33:49.816Z,34.07
2023-04-27T13:34:49.835Z,34.20
2023-04-27T13:35:49.880Z,34.14
2023-04-27T13:36:49.941Z,34.15
2023-04-27T13:37:49.994Z,34.19
2023-04-27T13:38:50.019Z,34.14
2023-04-27T13:39:50.093Z,34.14
2023-04-27T13:40:50.172Z,34.08
2023-04-27T13:41:50.232Z,34.15
2023-04-27T13:42:50.293Z,34.13
2023-04-27T13:43:50.344Z,34.18
2023-04-27T13:44:50.399Z,34.07
2023-04-27T13:45:50.413Z,33.98
2023-04-27T13:46:50.527Z,34.03
2023-04-27T13:47:50.628Z,34.09
2023-04-27T13:48:50.596Z,34.26
2023-04-27T13:49:50.641Z,34.12
2023-04-27T13:50:50.649Z,34.16
2023-04-27T13:51:50.679Z,34.31
2023-04-27T13:52:50.801Z,34.32
2023-04-27T13:53:50.766Z,34.32
2023-04-27T13:54:50.816Z,34.30
2023-04-27T13:55:50.899Z,34.22
2023-04-27T13:56:50.914Z,34.36
2023-04-27T13:57:51.006Z,34.29
2023-04-27T13:58:51.013Z,34.33
2023-04-27T13:59:51.049Z,34.26
2023-04-27T14:00:51.190Z,34.48
2023-04-27T14:01:51.179Z,34.38
2023-04-27T14:02:51.300Z,34.24
2023-04-27T14:03:51.336Z,34.20
2023-04-27T14:04:51.290Z,34.29
2023-04-27T14:05:51.382Z,34.15
2023-04-27T14:06:51.334Z,34.35
2023-04-27T14:07:51.376Z,34.35
2023-04-27T14:08:52.353Z,34.34
2023-04-27T14:09:51.410Z,34.32
2023-04-27T14:10:51.445Z,34.19
2023-04-27T14:11:56.956Z,34.19
2023-04-27T14:12:52.532Z,34.32
2023-04-27T14:13:51.524Z,34.17
2023-04-27T14:14:51.526Z,34.13
2023-04-27T14:15:52.276Z,34.22
2023-04-27T14:16:51.636Z,34.10
2023-04-27T14:17:51.551Z,34.03
2023-04-27T14:18:51.455Z,34.24
2023-04-27T14:19:51.440Z,34.17
2023-04-27T14:20:51.470Z,34.08
2023-04-27T14:21:52.285Z,34.12
2023-04-27T14:22:51.479Z,34.00
2023-04-27T14:23:51.408Z,34.13
2023-04-27T14:24:51.500Z,34.14
2023-04-27T14:25:51.494Z,34.12
2023-04-27T14:26:51.543Z,34.13
2023-04-27T14:27:52.341Z,34.16
2023-04-27T14:28:51.640Z,34.06
2023-04-27T14:29:51.593Z,34.02
2023-04-27T14:30:51.663Z,33.97
2023-04-27T14:31:51.761Z,33.90
2023-04-27T14:32:51.730Z,33.92
2023-04-27T14:33:51.762Z,33.86
2023-04-27T14:34:51.777Z,33.78
2023-04-27T14:35:51.730Z,33.80
2023-04-27T14:36:51.787Z,33.76
2023-04-27T14:37:51.836Z,33.73
2023-04-27T14:38:51.830Z,33.75
2023-04-27T14:39:51.909Z,33.75
2023-04-27T14:40:51.930Z,33.75
2023-04-27T14:41:51.932Z,33.67
2023-04-27T14:42:52.338Z,33.75
2023-04-27T14:43:51.977Z,33.73
2023-04-27T14:44:51.978Z,33.69
2023-04-27T14:45:55.685Z,33.83
2023-04-27T14:46:53.228Z,33.73
2023-04-27T14:47:52.061Z,33.70
2023-04-27T14:48:52.024Z,33.74
2023-04-27T14:49:52.018Z,33.75
2023-04-27T14:50:52.015Z,33.65
2023-04-27T14:51:51.980Z,33.70
2023-04-27T14:52:51.993Z,33.70
2023-04-27T14:53:52.006Z,33.71
2023-04-27T14:54:51.999Z,33.68
2023-04-27T14:55:51.961Z,33.69
2023-04-27T14:56:51.947Z,33.57
2023-04-27T14:57:51.957Z,33.63
2023-04-27T14:58:51.989Z,33.66
2023-04-27T14:59:51.938Z,33.58
2023-04-27T15:00:51.944Z,33.65
2023-04-27T15:01:52.178Z,33.57
2023-04-27T15:02:52.355Z,33.60
2023-04-27T15:03:52.030Z,33.58
2023-04-27T15:04:51.924Z,33.58
2023-04-27T15:05:52.800Z,33.57
2023-04-27T15:06:51.954Z,33.57
2023-04-27T15:07:52.009Z,33.57
2023-04-27T15:08:52.049Z,33.56
2023-04-27T15:09:52.063Z,33.49
2023-04-27T15:10:52.054Z,33.49
2023-04-27T15:11:52.059Z,33.52
2023-04-27T15:12:52.319Z,33.53
2023-04-27T15:13:52.138Z,33.64
2023-04-27T15:14:52.119Z,33.47
2023-04-27T15:15:52.149Z,33.50
2023-04-27T15:16:52.129Z,33.43
2023-04-27T15:17:52.240Z,33.45
2023-04-27T15:18:52.198Z,33.49
2023-04-27T15:19:52.204Z,33.42
2023-04-27T15:20:52.231Z,33.48
2023-04-27T15:21:52.208Z,33.41
2023-04-27T15:22:52.241Z,33.36
2023-04-27T15:23:52.233Z,33.35
2023-04-27T15:24:52.238Z,33.40
2023-04-27T15:25:52.245Z,33.47
2023-04-27T15:26:52.278Z,33.44
2023-04-27T15:27:52.326Z,33.28
2023-04-27T15:28:52.308Z,33.40
2023-04-27T15:29:52.340Z,33.35
2023-04-27T15:30:52.368Z,33.46
2023-04-27T15:31:52.445Z,33.25
2023-04-27T15:32:52.840Z,33.32
2023-04-27T15:33:52.380Z,33.32
2023-04-27T15:34:52.381Z,33.34
2023-04-27T15:35:52.388Z,33.28
2023-04-27T15:36:52.418Z,33.36
2023-04-27T15:37:52.409Z,33.38
2023-04-27T15:38:52.431Z,33.34
2023-04-27T15:39:52.428Z,33.28
2023-04-27T15:40:52.419Z,33.24
2023-04-27T15:41:52.471Z,33.20
2023-04-27T15:42:52.813Z,33.32
2023-04-27T15:43:52.490Z,33.31
2023-04-27T15:44:52.481Z,33.33
2023-04-27T15:45:52.494Z,33.32
2023-04-27T15:46:52.545Z,33.25
2023-04-27T15:47:52.609Z,33.25
2023-04-27T15:48:52.544Z,33.25
2023-04-27T15:49:57.378Z,33.22
2023-04-27T15:50:53.553Z,33.18
2023-04-27T15:51:52.526Z,33.23
2023-04-27T15:52:52.501Z,33.15
2023-04-27T15:53:52.505Z,33.18
2023-04-27T15:54:52.501Z,33.20
2023-04-27T15:55:52.496Z,33.17
2023-04-27T15:56:53.318Z,33.12
2023-04-27T15:57:52.811Z,33.22
2023-04-27T15:58:52.460Z,33.09
2023-04-27T15:59:52.451Z,33.14
2023-04-27T16:00:52.455Z,33.09
2023-04-27T16:01:52.542Z,33.08
2023-04-27T16:02:52.572Z,33.09
2023-04-27T16:03:52.538Z,33.11
2023-04-27T16:04:52.501Z,33.01
2023-04-27T16:05:52.430Z,32.99
2023-04-27T16:06:52.427Z,32.96
2023-04-27T16:07:52.799Z,32.92
2023-04-27T16:08:52.410Z,32.96
2023-04-27T16:09:52.473Z,32.93
2023-04-27T16:10:52.382Z,32.88
2023-04-27T16:11:52.369Z,32.88
2023-04-27T16:12:52.412Z,32.84
2023-04-27T16:13:52.364Z,32.85
2023-04-27T16:14:52.341Z,32.81
2023-04-27T16:15:52.336Z,32.79
2023-04-27T16:16:52.516Z,32.81
2023-04-27T16:17:52.942Z,32.80
2023-04-27T16:18:52.351Z,32.81
2023-04-27T16:19:52.315Z,32.74
2023-04-27T16:20:52.308Z,32.77
2023-04-27T16:21:52.318Z,32.67
2023-04-27T16:22:52.348Z,32.60
2023-04-27T16:23:52.329Z,32.62
2023-04-27T16:24:52.350Z,32.52
2023-04-27T16:25:52.343Z,32.48
2023-04-27T16:26:52.379Z,32.49
2023-04-27T16:27:52.357Z,32.43
2023-04-27T16:28:52.863Z,32.48
2023-04-27T16:29:52.373Z,32.51
2023-04-27T16:30:52.388Z,32.52
2023-04-27T16:31:52.434Z,32.52
2023-04-27T16:32:52.436Z,32.53
2023-04-27T16:33:52.857Z,32.52
2023-04-27T16:34:52.374Z,32.59
2023-04-27T16:35:52.465Z,32.55
2023-04-27T16:36:52.434Z,32.59
2023-04-27T16:37:52.415Z,32.56
2023-04-27T16:38:52.827Z,32.48
2023-04-27T16:39:52.443Z,32.46
2023-04-27T16:40:52.467Z,32.52
2023-04-27T16:41:52.449Z,32.53
2023-04-27T16:42:52.448Z,32.51
2023-04-27T16:43:52.841Z,32.46
2023-04-27T16:44:52.469Z,32.50
2023-04-27T16:45:52.490Z,32.52
2023-04-27T16:46:52.497Z,32.50
2023-04-27T16:47:52.707Z,32.53
2023-04-27T16:48:52.847Z,32.55
2023-04-27T16:49:52.557Z,32.53
2023-04-27T16:50:54.725Z,32.52
2023-04-27T16:51:52.571Z,32.48
2023-04-27T16:52:52.512Z,32.52
2023-04-27T16:53:52.829Z,32.44
2023-04-27T16:54:52.496Z,32.44
2023-04-27T16:55:52.517Z,32.42
2023-04-27T16:56:55.009Z,32.44
2023-04-27T16:57:52.505Z,32.37
2023-04-27T16:58:52.813Z,32.34
2023-04-27T16:59:52.473Z,32.28
2023-04-27T17:00:52.525Z,32.36
2023-04-27T17:01:52.564Z,32.35
2023-04-27T17:02:52.530Z,32.21
2023-04-27T17:03:52.670Z,32.22
2023-04-27T17:04:52.496Z,32.18
2023-04-27T17:05:52.487Z,32.17
2023-04-27T17:06:52.521Z,32.17
2023-04-27T17:07:52.427Z,32.15
2023-04-27T17:08:52.886Z,32.14
2023-04-27T17:09:52.429Z,32.12
2023-04-27T17:10:52.420Z,32.09
2023-04-27T17:11:52.418Z,32.04
2023-04-27T17:12:52.415Z,32.05
2023-04-27T17:13:52.439Z,32.09
2023-04-27T17:14:52.368Z,32.11
2023-04-27T17:15:52.404Z,32.15
2023-04-27T17:16:52.382Z,32.08
2023-04-27T17:17:52.399Z,32.10
2023-04-27T17:18:52.840Z,32.15
2023-04-27T17:19:52.376Z,32.11
2023-04-27T17:20:52.340Z,32.15
2023-04-27T17:21:52.355Z,32.14
2023-04-27T17:22:52.321Z,32.12
2023-04-27T17:23:52.337Z,32.14
2023-04-27T17:24:52.308Z,32.16
2023-04-27T17:25:52.295Z,32.13
2023-04-27T17:26:52.323Z,32.12
2023-04-27T17:27:52.291Z,32.10
2023-04-27T17:28:52.371Z,32.17
2023-04-27T17:29:52.259Z,32.18
2023-04-27T17:30:52.261Z,32.14
2023-04-27T17:31:52.264Z,32.18
2023-04-27T17:32:52.285Z,32.11
2023-04-27T17:33:52.390Z,32.18
2023-04-27T17:34:52.228Z,32.18
2023-04-27T17:35:52.219Z,32.15
2023-04-27T17:36:52.228Z,32.16
2023-04-27T17:37:52.224Z,32.17
2023-04-27T17:38:52.331Z,32.13
2023-04-27T17:39:52.217Z,32.10
2023-04-27T17:40:52.165Z,32.03
2023-04-27T17:41:52.173Z,32.10
2023-04-27T17:42:52.239Z,32.06
2023-04-27T17:43:52.195Z,32.07
2023-04-27T17:44:52.180Z,32.02
2023-04-27T17:45:52.149Z,32.04
2023-04-27T17:46:52.228Z,32.04
2023-04-27T17:47:52.202Z,32.04
2023-04-27T17:48:52.373Z,32.10
2023-04-27T17:49:52.134Z,32.01
2023-04-27T17:50:52.111Z,32.04
2023-04-27T17:51:52.130Z,32.04
2023-04-27T17:52:52.103Z,32.01
2023-04-27T17:53:52.105Z,32.01
2023-04-27T17:54:52.122Z,32.05
2023-04-27T17:55:52.083Z,32.03
2023-04-27T17:56:52.081Z,32.01
2023-04-27T17:57:52.087Z,32.00
2023-04-27T17:58:52.053Z,32.01
2023-04-27T17:59:52.077Z,32.03
2023-04-27T18:00:52.126Z,32.03
2023-04-27T18:01:52.123Z,32.01
2023-04-27T18:02:52.139Z,32.01
2023-04-27T18:03:52.299Z,32.06
2023-04-27T18:04:52.039Z,32.03
2023-04-27T18:05:52.026Z,32.04
2023-04-27T18:06:52.023Z,31.99
2023-04-27T18:07:52.015Z,31.97
2023-04-27T18:08:51.992Z,32.03
2023-04-27T18:09:52.001Z,32.03
2023-04-27T18:10:51.961Z,31.98
2023-04-27T18:11:51.972Z,31.97
2023-04-27T18:12:51.946Z,31.97
2023-04-27T18:13:51.950Z,31.99
2023-04-27T18:14:51.970Z,31.95
2023-04-27T18:15:51.933Z,31.95
2023-04-27T18:16:52.072Z,31.95
2023-04-27T18:17:51.999Z,31.95
2023-04-27T18:18:52.369Z,31.99
2023-04-27T18:20:04.448Z,31.97
2023-04-27T18:20:52.926Z,31.94
2023-04-27T18:21:51.883Z,31.92
2023-04-27T18:22:51.897Z,31.95
2023-04-27T18:23:51.915Z,31.92
2023-04-27T18:24:51.859Z,31.92
2023-04-27T18:25:51.865Z,31.99
2023-04-27T18:26:51.890Z,31.99
2023-04-27T18:27:51.855Z,32.02
2023-04-27T18:28:51.871Z,31.97
2023-04-27T18:29:51.833Z,31.97
2023-04-27T18:30:51.872Z,31.99
2023-04-27T18:31:51.907Z,31.97
2023-04-27T18:32:51.868Z,32.00
2023-04-27T18:33:51.811Z,31.97
2023-04-27T18:34:51.779Z,32.02
2023-04-27T18:35:51.835Z,32.04
2023-04-27T18:36:52.243Z,31.97
2023-04-27T18:37:51.837Z,31.99
2023-04-27T18:38:51.881Z,31.99
2023-04-27T18:39:52.982Z,31.92
2023-04-27T18:40:51.947Z,31.99
2023-04-27T18:41:51.974Z,32.01
2023-04-27T18:42:52.025Z,31.94
2023-04-27T18:43:52.034Z,31.94
2023-04-27T18:44:52.060Z,31.94
2023-04-27T18:45:52.191Z,31.88
2023-04-27T18:46:52.167Z,31.95
2023-04-27T18:47:52.187Z,31.90
2023-04-27T18:48:52.376Z,31.96
2023-04-27T18:49:52.184Z,31.94
2023-04-27T18:50:52.236Z,31.96
2023-04-27T18:51:52.247Z,31.99
2023-04-27T18:52:52.294Z,31.97
2023-04-27T18:53:52.350Z,31.98
2023-04-27T18:54:52.333Z,31.97
2023-04-27T18:55:52.369Z,31.95
2023-04-27T18:56:52.423Z,31.92
2023-04-27T18:57:52.444Z,31.96
2023-04-27T18:58:52.463Z,31.95
2023-04-27T18:59:52.459Z,31.90
2023-04-27T19:00:52.524Z,32.00
2023-04-27T19:01:52.697Z,31.99
2023-04-27T19:02:52.752Z,31.98
2023-04-27T19:03:52.858Z,31.98
2023-04-27T19:04:57.058Z,32.02
2023-04-27T19:05:53.633Z,32.04
2023-04-27T19:06:52.649Z,32.12
2023-04-27T19:07:52.666Z,32.09
2023-04-27T19:08:52.610Z,32.06
2023-04-27T19:09:52.609Z,32.07
2023-04-27T19:10:52.629Z,32.07
2023-04-27T19:11:56.365Z,32.00
2023-04-27T19:12:53.611Z,32.06
2023-04-27T19:13:52.875Z,32.11
2023-04-27T19:14:52.575Z,32.12
2023-04-27T19:15:52.562Z,32.12
2023-04-27T19:16:52.590Z,32.14
2023-04-27T19:17:55.448Z,32.11
2023-04-27T19:18:53.550Z,32.11
2023-04-27T19:19:52.567Z,32.12
2023-04-27T19:20:52.532Z,32.15
2023-04-27T19:21:52.556Z,32.18
2023-04-27T19:22:52.506Z,32.20
2023-04-27T19:23:52.525Z,32.19
2023-04-27T19:24:52.500Z,32.16
2023-04-27T19:25:55.204Z,32.19
2023-04-27T19:26:53.507Z,32.17
2023-04-27T19:27:52.481Z,32.20
2023-04-27T19:28:52.493Z,32.20
2023-04-27T19:29:52.479Z,32.17
2023-04-27T19:30:52.580Z,32.21
2023-04-27T19:31:52.454Z,32.25
2023-04-27T19:32:52.697Z,32.26
2023-04-27T19:33:55.332Z,32.22
2023-04-27T19:34:52.466Z,32.18
2023-04-27T19:35:53.417Z,32.23
2023-04-27T19:36:52.420Z,32.16
2023-04-27T19:37:52.421Z,32.15
2023-04-27T19:38:52.865Z,32.17
2023-04-27T19:39:52.391Z,32.21
2023-04-27T19:40:52.401Z,32.22
2023-04-27T19:41:52.369Z,32.22
2023-04-27T19:42:52.371Z,32.20
2023-04-27T19:43:52.353Z,32.20
2023-04-27T19:44:52.363Z,32.23
2023-04-27T19:45:52.373Z,32.23
2023-04-27T19:46:52.381Z,32.23
2023-04-27T19:47:52.444Z,32.25
2023-04-27T19:48:52.364Z,32.24
2023-04-27T19:49:52.346Z,32.27
2023-04-27T19:50:52.345Z,32.30
2023-04-27T19:51:52.309Z,32.24
2023-04-27T19:52:52.304Z,32.28